createdAt,value
2023-01-20T00:01:35.579Z,-0.20
2023-01-20T00:04:03.579Z,-0.20
2023-01-20T00:06:31.707Z,-0.30
2023-01-20T00:09:02.909Z,-0.30
2023-01-20T00:11:32.630Z,-0.30
2023-01-20T00:14:01.789Z,-0.30
2023-01-20T00:16:31.859Z,-0.40
2023-01-20T00:19:05.680Z,-0.40
2023-01-20T00:21:34.997Z,-0.30
2023-01-20T00:24:02.922Z,-0.30
2023-01-20T00:26:32.208Z,-0.30
2023-01-20T00:29:00.221Z,-0.30
2023-01-20T00:31:29.955Z,-0.40
2023-01-20T00:33:59.663Z,-0.40
2023-01-20T00:36:29.366Z,-0.40
2023-01-20T00:38:57.357Z,-0.40
2023-01-20T00:41:25.453Z,-0.40
2023-01-20T00:43:54.786Z,-0.50
2023-01-20T00:46:23.398Z,-0.50
2023-01-20T00:48:51.372Z,-0.60
2023-01-20T00:51:19.416Z,-0.60
2023-01-20T00:53:47.348Z,-0.60
2023-01-20T00:56:15.290Z,-0.60
2023-01-20T00:58:44.213Z,-0.60
2023-01-20T01:01:14.171Z,-0.60
2023-01-20T01:03:42.136Z,-0.60
2023-01-20T01:06:12.096Z,-0.60
2023-01-20T01:08:40.210Z,-0.60
2023-01-20T01:11:08.807Z,-0.60
2023-01-20T01:13:37.210Z,-0.60
2023-01-20T01:16:05.735Z,-0.60
2023-01-20T01:18:34.991Z,-0.60
2023-01-20T01:21:07.671Z,-0.60
2023-01-20T01:23:35.461Z,-0.60
2023-01-20T01:26:03.400Z,-0.50
2023-01-20T01:28:31.560Z,-0.60
2023-01-20T01:31:01.881Z,-0.70
2023-01-20T01:33:29.926Z,-0.80
2023-01-20T01:36:00.063Z,-0.90
2023-01-20T01:38:28.998Z,-1.00
2023-01-20T01:40:57.535Z,-1.00
2023-01-20T01:43:27.671Z,-1.10
2023-01-20T01:45:56.282Z,-1.10
2023-01-20T01:48:27.728Z,-1.20
2023-01-20T01:51:02.256Z,-1.20
2023-01-20T01:53:32.074Z,-1.20
2023-01-20T01:56:03.375Z,-1.30
2023-01-20T01:58:35.205Z,-1.30
2023-01-20T02:01:03.179Z,-1.30
2023-01-20T02:03:39.278Z,-1.30
2023-01-20T02:06:10.210Z,-1.40
2023-01-20T02:08:38.967Z,-1.40
2023-01-20T02:11:07.045Z,-1.30
2023-01-20T02:13:36.276Z,-1.30
2023-01-20T02:16:11.953Z,-1.30
2023-01-20T02:18:50.963Z,-1.40
2023-01-20T02:22:06.754Z,-1.40
2023-01-20T02:25:11.171Z,-1.50
2023-01-20T02:28:06.221Z,-1.40
2023-01-20T02:31:04.643Z,-1.40
2023-01-20T02:33:40.264Z,-1.40
2023-01-20T02:36:12.045Z,-1.40
2023-01-20T02:38:45.111Z,-1.50
2023-01-20T02:41:18.640Z,-1.60
2023-01-20T02:43:50.972Z,-1.70
2023-01-20T02:46:26.466Z,-1.70
2023-01-20T02:49:02.356Z,-1.60
2023-01-20T02:51:36.089Z,-1.50
2023-01-20T02:54:08.819Z,-1.60
2023-01-20T02:56:37.619Z,-1.60
2023-01-20T02:59:09.357Z,-1.70
2023-01-20T03:01:41.260Z,-1.70
2023-01-20T03:04:14.552Z,-1.70
2023-01-20T03:06:47.360Z,-1.70
2023-01-20T03:09:19.226Z,-1.70
2023-01-20T03:11:52.038Z,-1.70
2023-01-20T03:14:20.320Z,-1.60
2023-01-20T03:16:50.176Z,-1.60
2023-01-20T03:19:20.750Z,-1.50
2023-01-20T03:21:49.113Z,-1.50
2023-01-20T03:24:17.108Z,-1.50
2023-01-20T03:26:45.029Z,-1.60
2023-01-20T03:29:15.158Z,-1.60
2023-01-20T03:31:47.176Z,-1.60
2023-01-20T03:34:19.099Z,-1.60
2023-01-20T03:36:48.745Z,-1.60
2023-01-20T03:39:17.730Z,-1.60
2023-01-20T03:41:55.873Z,-1.60
2023-01-20T03:44:33.109Z,-1.60
2023-01-20T03:47:14.164Z,-1.60
2023-01-20T03:49:52.422Z,-1.60
2023-01-20T03:52:47.483Z,-1.60
2023-01-20T03:55:21.990Z,-1.60
2023-01-20T03:57:55.881Z,-1.60
2023-01-20T04:00:24.885Z,-1.60
2023-01-20T04:02:56.199Z,-1.40
2023-01-20T04:05:24.150Z,-1.20
2023-01-20T04:07:56.958Z,-1.20
2023-01-20T04:10:27.780Z,-1.40
2023-01-20T04:12:56.134Z,-1.50
2023-01-20T04:15:26.159Z,-1.50
2023-01-20T04:17:54.414Z,-1.60
2023-01-20T04:20:24.437Z,-1.70
2023-01-20T04:22:58.366Z,-1.70
2023-01-20T04:25:28.150Z,-1.80
2023-01-20T04:27:56.157Z,-1.80
2023-01-20T04:30:24.107Z,-1.90
2023-01-20T04:32:52.209Z,-1.90
2023-01-20T04:35:21.440Z,-1.90
2023-01-20T04:37:49.310Z,-1.90
2023-01-20T04:40:18.793Z,-1.90
2023-01-20T04:42:46.616Z,-1.90
2023-01-20T04:45:17.435Z,-1.80
2023-01-20T04:47:45.800Z,-1.90
2023-01-20T04:50:15.173Z,-2.00
2023-01-20T04:52:43.038Z,-2.10
2023-01-20T04:55:12.421Z,-2.10
2023-01-20T04:57:41.809Z,-2.10
2023-01-20T05:00:12.085Z,-2.10
2023-01-20T05:02:39.999Z,-2.20
2023-01-20T05:05:08.601Z,-2.20
2023-01-20T05:07:36.481Z,-2.30
2023-01-20T05:10:04.537Z,-2.30
2023-01-20T05:12:32.499Z,-2.30
2023-01-20T05:15:01.676Z,-2.30
2023-01-20T05:17:29.508Z,-2.40
2023-01-20T05:19:57.353Z,-2.40
2023-01-20T05:22:25.265Z,-2.40
2023-01-20T05:24:53.153Z,-2.40
2023-01-20T05:27:21.022Z,-2.40
2023-01-20T05:29:48.842Z,-2.40
2023-01-20T05:32:18.064Z,-2.40
2023-01-20T05:34:46.039Z,-2.50
2023-01-20T05:37:13.876Z,-2.40
2023-01-20T05:39:41.684Z,-2.30
2023-01-20T05:42:09.538Z,-2.40
2023-01-20T05:44:37.360Z,-2.30
2023-01-20T05:47:05.553Z,-2.30
2023-01-20T05:49:34.848Z,-2.40
2023-01-20T05:52:02.679Z,-2.30
2023-01-20T05:54:30.910Z,-2.30
2023-01-20T05:56:59.146Z,-2.40
2023-01-20T05:59:27.173Z,-2.40
2023-01-20T06:01:56.790Z,-2.40
2023-01-20T06:04:25.933Z,-2.40
2023-01-20T06:06:55.405Z,-2.50
2023-01-20T06:09:23.368Z,-2.50
2023-01-20T06:11:52.378Z,-2.50
2023-01-20T06:14:20.387Z,-2.50
2023-01-20T06:16:48.204Z,-2.50
2023-01-20T06:19:16.179Z,-2.50
2023-01-20T06:21:46.056Z,-2.50
2023-01-20T06:24:16.392Z,-2.60
2023-01-20T06:26:44.204Z,-2.60
2023-01-20T06:29:12.077Z,-2.60
2023-01-20T06:31:39.980Z,-2.70
2023-01-20T06:34:07.880Z,-2.70
2023-01-20T06:36:35.728Z,-2.70
2023-01-20T06:39:03.768Z,-2.70
2023-01-20T06:41:33.059Z,-2.70
2023-01-20T06:44:01.102Z,-2.70
2023-01-20T06:46:29.000Z,-2.70
2023-01-20T06:49:00.532Z,-2.70
2023-01-20T06:51:30.949Z,-2.70
2023-01-20T06:53:59.062Z,-2.70
2023-01-20T06:56:27.389Z,-2.70
2023-01-20T06:58:56.634Z,-2.70
2023-01-20T07:01:26.738Z,-2.70
2023-01-20T07:03:55.360Z,-2.70
2023-01-20T07:06:28.608Z,-2.70
2023-01-20T07:08:58.794Z,-2.60
2023-01-20T07:11:26.960Z,-2.60
2023-01-20T07:13:56.252Z,-2.60
2023-01-20T07:16:24.441Z,-2.60
2023-01-20T07:18:53.215Z,-2.60
2023-01-20T07:21:25.209Z,-2.60
2023-01-20T07:23:54.085Z,-2.70
2023-01-20T07:26:24.212Z,-2.70
2023-01-20T07:28:52.129Z,-2.70
2023-01-20T07:31:22.979Z,-2.60
2023-01-20T07:33:51.240Z,-2.60
2023-01-20T07:36:20.069Z,-2.60
2023-01-20T07:38:49.339Z,-2.50
2023-01-20T07:41:19.513Z,-2.40
2023-01-20T07:43:49.277Z,-2.00
2023-01-20T07:46:17.243Z,-1.30
2023-01-20T07:48:46.530Z,-0.70
2023-01-20T07:51:16.607Z,-0.10
2023-01-20T07:53:47.030Z,0.70
2023-01-20T07:56:16.637Z,1.60
2023-01-20T07:58:45.372Z,2.30
2023-01-20T08:01:15.573Z,3.00
2023-01-20T08:03:43.988Z,3.70
2023-01-20T08:06:14.720Z,4.50
2023-01-20T08:08:42.584Z,5.30
2023-01-20T08:11:12.967Z,6.10
2023-01-20T08:13:41.578Z,6.70
2023-01-20T08:16:11.447Z,7.30
2023-01-20T08:18:40.128Z,7.80
2023-01-20T08:21:09.140Z,7.90
2023-01-20T08:23:38.767Z,8.30
2023-01-20T08:26:08.350Z,8.80
2023-01-20T08:28:37.329Z,9.20
2023-01-20T08:31:07.354Z,9.50
2023-01-20T08:33:35.333Z,9.90
2023-01-20T08:36:08.057Z,9.50
2023-01-20T08:38:36.478Z,8.40
2023-01-20T08:41:09.551Z,7.80
2023-01-20T08:43:37.697Z,8.00
2023-01-20T08:46:08.261Z,8.60
2023-01-20T08:48:36.434Z,9.30
2023-01-20T08:51:07.574Z,9.60
2023-01-20T08:53:35.714Z,9.60
2023-01-20T08:56:04.538Z,9.70
2023-01-20T08:58:34.220Z,9.30
2023-01-20T09:01:02.663Z,8.20
2023-01-20T09:03:32.996Z,7.70
2023-01-20T09:06:03.463Z,7.30
2023-01-20T09:08:31.583Z,6.90
2023-01-20T09:11:04.082Z,6.90
2023-01-20T09:13:33.384Z,6.70
2023-01-20T09:16:01.288Z,6.00
2023-01-20T09:18:29.725Z,4.70
2023-01-20T09:20:58.680Z,3.90
2023-01-20T09:23:26.598Z,3.30
2023-01-20T09:25:54.464Z,3.10
2023-01-20T09:28:22.411Z,2.90
2023-01-20T09:30:51.703Z,2.70
2023-01-20T09:33:19.588Z,2.60
2023-01-20T09:35:55.472Z,2.70
2023-01-20T09:38:40.773Z,2.80
2023-01-20T09:41:35.110Z,2.70
2023-01-20T09:44:12.539Z,2.80
2023-01-20T09:47:09.836Z,3.10
2023-01-20T09:50:06.041Z,3.40
2023-01-20T09:52:54.042Z,3.50
2023-01-20T09:55:27.657Z,3.40
2023-01-20T09:58:02.947Z,3.60
2023-01-20T10:00:35.227Z,3.70
2023-01-20T10:03:14.525Z,3.60
2023-01-20T10:05:43.919Z,3.70
2023-01-20T10:08:18.183Z,4.30
2023-01-20T10:10:52.432Z,4.60
2023-01-20T10:13:25.284Z,4.40
2023-01-20T10:15:56.289Z,4.20
2023-01-20T10:18:32.107Z,4.00
2023-01-20T10:21:03.837Z,3.70
2023-01-20T10:23:39.171Z,3.50
2023-01-20T10:26:10.954Z,3.40
2023-01-20T10:28:43.100Z,3.30
2023-01-20T10:31:14.379Z,3.20
2023-01-20T10:33:46.333Z,3.10
2023-01-20T10:36:20.384Z,3.10
2023-01-20T10:38:54.953Z,3.00
2023-01-20T10:41:29.301Z,3.00
2023-01-20T10:43:59.349Z,3.00
2023-01-20T10:46:42.768Z,3.00
2023-01-20T10:49:38.428Z,2.90
2023-01-20T10:52:19.911Z,2.90
2023-01-20T10:54:54.019Z,2.90
2023-01-20T10:57:22.576Z,2.90
2023-01-20T10:59:54.398Z,2.90
2023-01-20T11:02:26.458Z,3.00
2023-01-20T11:04:58.874Z,3.00
2023-01-20T11:07:28.186Z,3.10
2023-01-20T11:09:56.407Z,3.20
2023-01-20T11:12:28.254Z,3.20
2023-01-20T11:15:00.644Z,3.20
2023-01-20T11:17:28.548Z,3.20
2023-01-20T11:19:59.428Z,3.20
2023-01-20T11:22:31.609Z,3.20
2023-01-20T11:25:01.561Z,3.30
2023-01-20T11:27:34.219Z,3.30
2023-01-20T11:30:06.529Z,3.40
2023-01-20T11:32:36.360Z,3.40
2023-01-20T11:35:22.251Z,3.50
2023-01-20T11:37:50.202Z,3.60
2023-01-20T11:40:23.634Z,3.60
2023-01-20T11:42:52.951Z,3.60
2023-01-20T11:45:34.402Z,3.60
2023-01-20T11:48:16.840Z,3.70
2023-01-20T11:50:50.468Z,3.80
2023-01-20T11:53:24.253Z,3.80
2023-01-20T11:55:57.763Z,3.80
2023-01-20T11:58:27.988Z,3.80
2023-01-20T12:01:02.500Z,3.80
2023-01-20T12:04:19.274Z,3.80
2023-01-20T12:06:54.768Z,3.80
2023-01-20T12:09:29.554Z,3.90
2023-01-20T12:12:02.143Z,4.00
2023-01-20T12:14:33.645Z,4.00
2023-01-20T12:17:20.222Z,4.10
2023-01-20T12:20:02.468Z,4.20
2023-01-20T12:22:38.067Z,4.20
2023-01-20T12:25:17.283Z,4.20
2023-01-20T12:27:49.478Z,4.20
2023-01-20T12:30:52.049Z,4.30
2023-01-20T12:33:23.459Z,4.30
2023-01-20T12:36:20.925Z,4.40
2023-01-20T12:39:12.076Z,4.40
2023-01-20T12:42:24.445Z,4.30
2023-01-20T12:44:57.409Z,4.40
2023-01-20T12:47:43.823Z,4.40
2023-01-20T12:50:26.379Z,4.40
2023-01-20T12:53:10.610Z,4.40
2023-01-20T12:55:55.824Z,4.50
2023-01-20T12:58:39.584Z,4.60
2023-01-20T13:01:41.059Z,4.70
2023-01-20T13:04:48.270Z,4.80
2023-01-20T13:07:49.637Z,4.80
2023-01-20T13:10:29.593Z,4.70
2023-01-20T13:13:05.716Z,4.60
2023-01-20T13:15:37.495Z,4.60
2023-01-20T13:18:22.423Z,4.50
2023-01-20T13:20:51.259Z,4.50
2023-01-20T13:23:23.471Z,4.50
2023-01-20T13:25:52.821Z,4.50
2023-01-20T13:28:24.818Z,4.50
2023-01-20T13:30:54.770Z,4.50
2023-01-20T13:33:35.507Z,4.50
2023-01-20T13:36:17.555Z,4.50
2023-01-20T13:38:45.933Z,4.60
2023-01-20T13:41:33.768Z,4.40
2023-01-20T13:44:42.510Z,4.50
2023-01-20T13:47:11.763Z,4.50
2023-01-20T13:49:51.699Z,4.60
2023-01-20T13:53:04.471Z,4.60
2023-01-20T13:55:51.720Z,4.60
2023-01-20T13:58:20.722Z,4.80
2023-01-20T14:00:52.316Z,4.90
2023-01-20T14:03:24.246Z,4.90
2023-01-20T14:05:53.641Z,4.90
2023-01-20T14:08:23.057Z,5.00
2023-01-20T14:10:51.561Z,5.00
2023-01-20T14:13:22.357Z,5.10
2023-01-20T14:15:54.448Z,5.30
2023-01-20T14:18:25.950Z,5.30
2023-01-20T14:21:03.899Z,5.30
2023-01-20T14:23:38.084Z,5.10
2023-01-20T14:26:21.128Z,5.10
2023-01-20T14:28:51.535Z,5.00
2023-01-20T14:31:33.112Z,5.00
2023-01-20T14:34:04.192Z,5.00
2023-01-20T14:36:33.928Z,4.90
2023-01-20T14:39:04.280Z,4.80
2023-01-20T14:41:35.261Z,4.80
2023-01-20T14:44:03.806Z,4.80
2023-01-20T14:46:34.998Z,4.80
2023-01-20T14:49:04.483Z,4.80
2023-01-20T14:51:33.890Z,4.70
2023-01-20T14:54:30.958Z,4.70
2023-01-20T14:57:00.153Z,4.70
2023-01-20T14:59:28.074Z,4.70
2023-01-20T15:02:01.808Z,4.60
2023-01-20T15:04:36.571Z,4.50
2023-01-20T15:07:05.622Z,4.50
2023-01-20T15:09:35.368Z,4.60
2023-01-20T15:12:40.366Z,4.60
2023-01-20T15:15:21.877Z,4.60
2023-01-20T15:18:16.685Z,4.50
2023-01-20T15:20:46.552Z,4.50
2023-01-20T15:23:23.797Z,4.50
2023-01-20T15:25:53.153Z,4.40
2023-01-20T15:28:27.817Z,4.40
2023-01-20T15:30:57.813Z,4.30
2023-01-20T15:33:27.352Z,4.30
2023-01-20T15:35:57.785Z,4.20
2023-01-20T15:38:33.118Z,4.10
2023-01-20T15:41:01.080Z,4.10
2023-01-20T15:43:29.096Z,4.00
2023-01-20T15:45:57.051Z,3.90
2023-01-20T15:48:24.911Z,3.90
2023-01-20T15:50:54.148Z,3.80
2023-01-20T15:53:22.029Z,3.70
2023-01-20T15:55:51.552Z,3.70
2023-01-20T15:58:24.633Z,3.60
2023-01-20T16:00:53.113Z,3.60
2023-01-20T16:03:20.948Z,3.60
2023-01-20T16:05:50.665Z,3.60
2023-01-20T16:08:21.998Z,3.60
2023-01-20T16:10:50.044Z,3.60
2023-01-20T16:13:18.171Z,3.60
2023-01-20T16:15:46.111Z,3.60
2023-01-20T16:18:15.768Z,3.60
2023-01-20T16:20:45.182Z,3.60
2023-01-20T16:23:13.737Z,3.60
2023-01-20T16:25:43.948Z,3.60
2023-01-20T16:28:15.091Z,3.60
2023-01-20T16:30:43.749Z,3.60
2023-01-20T16:33:19.974Z,3.50
2023-01-20T16:35:48.386Z,3.30
2023-01-20T16:38:18.491Z,3.20
2023-01-20T16:40:50.806Z,2.90
2023-01-20T16:43:19.493Z,2.80
2023-01-20T16:45:52.592Z,2.50
2023-01-20T16:48:20.823Z,2.10
2023-01-20T16:50:48.705Z,1.90
2023-01-20T16:53:17.492Z,1.80
2023-01-20T16:55:49.047Z,1.70
2023-01-20T16:58:17.776Z,1.60
2023-01-20T17:00:45.769Z,1.60
2023-01-20T17:03:13.687Z,1.50
2023-01-20T17:05:41.630Z,1.50
2023-01-20T17:08:10.649Z,1.50
2023-01-20T17:10:38.516Z,1.60
2023-01-20T17:13:07.920Z,1.60
2023-01-20T17:15:36.663Z,1.60
2023-01-20T17:18:04.915Z,1.70
2023-01-20T17:20:32.880Z,1.70
2023-01-20T17:23:00.758Z,1.60
2023-01-20T17:25:28.736Z,1.60
2023-01-20T17:27:56.695Z,1.60
2023-01-20T17:30:26.722Z,1.60
2023-01-20T17:32:54.779Z,1.60
2023-01-20T17:35:22.669Z,1.50
2023-01-20T17:37:50.746Z,1.50
2023-01-20T17:40:19.323Z,1.50
2023-01-20T17:42:47.412Z,1.50
2023-01-20T17:45:15.436Z,1.40
2023-01-20T17:47:44.891Z,1.40
2023-01-20T17:50:12.944Z,1.40
2023-01-20T17:52:40.843Z,1.30
2023-01-20T17:55:09.343Z,1.30
2023-01-20T17:57:37.243Z,1.20
2023-01-20T18:00:06.665Z,1.20
2023-01-20T18:02:34.562Z,1.10
2023-01-20T18:05:04.208Z,1.10
2023-01-20T18:07:32.158Z,1.10
2023-01-20T18:10:00.008Z,1.10
2023-01-20T18:12:27.963Z,1.00
2023-01-20T18:14:56.049Z,1.00
2023-01-20T18:17:24.046Z,1.00
2023-01-20T18:19:51.994Z,1.00
2023-01-20T18:22:21.420Z,0.90
2023-01-20T18:24:49.734Z,0.90
2023-01-20T18:27:18.906Z,0.90
2023-01-20T18:29:46.819Z,0.90
2023-01-20T18:32:14.864Z,1.00
2023-01-20T18:34:42.719Z,1.00
2023-01-20T18:37:10.907Z,0.90
2023-01-20T18:39:40.124Z,0.90
2023-01-20T18:42:08.036Z,0.90
2023-01-20T18:44:35.905Z,0.90
2023-01-20T18:47:04.668Z,0.90
2023-01-20T18:49:32.593Z,0.90
2023-01-20T18:52:00.536Z,0.90
2023-01-20T18:54:32.310Z,1.00
2023-01-20T18:57:01.579Z,1.00
2023-01-20T18:59:29.593Z,0.90
2023-01-20T19:01:59.167Z,0.90
2023-01-20T19:04:27.186Z,0.90
2023-01-20T19:06:55.209Z,0.90
2023-01-20T19:09:25.790Z,0.90
2023-01-20T19:11:54.091Z,0.90
2023-01-20T19:14:23.482Z,0.90
2023-01-20T19:16:51.717Z,0.90
2023-01-20T19:19:20.267Z,0.90
2023-01-20T19:21:52.092Z,0.90
2023-01-20T19:24:21.640Z,0.90
2023-01-20T19:26:50.863Z,0.90
2023-01-20T19:29:22.216Z,0.90
2023-01-20T19:31:52.332Z,0.90
2023-01-20T19:34:20.386Z,0.80
2023-01-20T19:36:48.472Z,0.80
2023-01-20T19:39:17.606Z,0.90
2023-01-20T19:41:45.536Z,0.80
2023-01-20T19:44:13.990Z,0.80
2023-01-20T19:46:42.239Z,0.80
2023-01-20T19:49:12.805Z,0.80
2023-01-20T19:51:40.717Z,0.90
2023-01-20T19:54:09.028Z,0.80
2023-01-20T19:56:37.391Z,0.80
2023-01-20T19:59:08.152Z,0.80
2023-01-20T20:01:38.200Z,0.90
2023-01-20T20:04:07.931Z,0.90
2023-01-20T20:06:39.180Z,0.90
2023-01-20T20:09:10.427Z,0.90
2023-01-20T20:11:39.029Z,0.90
2023-01-20T20:14:09.429Z,0.90
2023-01-20T20:16:38.523Z,0.90
2023-01-20T20:19:08.035Z,0.80
2023-01-20T20:21:37.675Z,0.80
2023-01-20T20:24:06.326Z,0.80
2023-01-20T20:26:36.219Z,0.80
2023-01-20T20:29:06.592Z,0.80
2023-01-20T20:31:36.108Z,0.90
2023-01-20T20:34:06.294Z,0.80
2023-01-20T20:36:34.516Z,0.80
2023-01-20T20:39:05.166Z,0.90
2023-01-20T20:41:35.283Z,0.80
2023-01-20T20:44:04.340Z,0.90
2023-01-20T20:46:35.493Z,0.90
2023-01-20T20:49:03.891Z,0.90
2023-01-20T20:51:34.215Z,0.80
2023-01-20T20:54:04.537Z,0.90
2023-01-20T20:56:32.797Z,0.90
2023-01-20T20:59:03.385Z,0.90
2023-01-20T21:01:33.816Z,0.80
2023-01-20T21:04:02.441Z,0.90
2023-01-20T21:06:31.157Z,0.90
2023-01-20T21:08:59.639Z,0.80
2023-01-20T21:11:29.273Z,0.90
2023-01-20T21:13:57.361Z,0.90
2023-01-20T21:16:26.446Z,0.90
2023-01-20T21:18:56.332Z,0.90
2023-01-20T21:21:25.442Z,0.90
2023-01-20T21:23:55.473Z,0.90
2023-01-20T21:26:24.677Z,0.90
2023-01-20T21:28:54.100Z,0.90
2023-01-20T21:31:26.524Z,0.90
2023-01-20T21:33:56.946Z,0.80
2023-01-20T21:36:25.185Z,0.80
2023-01-20T21:38:55.785Z,0.90
2023-01-20T21:41:23.771Z,0.80
2023-01-20T21:44:10.678Z,0.80
2023-01-20T21:46:40.437Z,0.90
2023-01-20T21:49:26.655Z,0.80
2023-01-20T21:52:12.200Z,0.80
2023-01-20T21:54:41.280Z,0.80
2023-01-20T21:57:09.906Z,0.80
2023-01-20T21:59:39.362Z,0.80
2023-01-20T22:02:07.435Z,0.80
2023-01-20T22:04:35.848Z,0.80
2023-01-20T22:07:05.403Z,0.80
2023-01-20T22:09:33.706Z,0.80
2023-01-20T22:12:01.681Z,0.80
2023-01-20T22:14:29.888Z,0.80
2023-01-20T22:16:59.625Z,0.80
2023-01-20T22:19:28.088Z,0.80
2023-01-20T22:21:56.799Z,0.80
2023-01-20T22:24:24.822Z,0.80
2023-01-20T22:26:53.301Z,0.80
2023-01-20T22:29:21.403Z,0.80
2023-01-20T22:31:52.532Z,0.80
2023-01-20T22:34:22.843Z,0.80
2023-01-20T22:36:50.806Z,0.80
2023-01-20T22:39:18.943Z,0.80
2023-01-20T22:41:46.896Z,0.80
2023-01-20T22:44:15.087Z,0.80
2023-01-20T22:46:43.013Z,0.80
2023-01-20T22:49:12.210Z,0.80
2023-01-20T22:51:41.635Z,0.80
2023-01-20T22:54:10.648Z,0.90
2023-01-20T22:56:39.879Z,0.80
2023-01-20T22:59:08.012Z,0.90
2023-01-20T23:01:36.616Z,0.80
2023-01-20T23:04:06.446Z,0.80
2023-01-20T23:06:36.240Z,0.80
2023-01-20T23:09:08.008Z,0.80
2023-01-20T23:11:38.155Z,0.80
2023-01-20T23:14:06.651Z,0.80
2023-01-20T23:16:36.795Z,0.80
2023-01-20T23:19:06.012Z,0.80
2023-01-20T23:21:35.955Z,0.80
2023-01-20T23:24:05.501Z,0.80
2023-01-20T23:26:36.175Z,0.80
2023-01-20T23:29:05.236Z,0.70
2023-01-20T23:31:35.287Z,0.70
2023-01-20T23:34:03.532Z,0.70
2023-01-20T23:36:31.433Z,0.70
2023-01-20T23:39:02.248Z,0.70
2023-01-20T23:41:31.628Z,0.70
2023-01-20T23:44:03.579Z,0.70
2023-01-20T23:46:31.599Z,0.70
2023-01-20T23:49:01.805Z,0.70
2023-01-20T23:51:29.884Z,0.70
2023-01-20T23:53:58.183Z,0.70
2023-01-20T23:56:26.330Z,0.70
2023-01-20T23:58:55.622Z,0.70
